Time;durP1;ratioP1;P1;durP2;ratioP2;P2;SDS_P1;SDS_P2;PMS_P1;PMS_P2;Temp;Humidity;BMP_temperature;BMP_pressure;BME280_temperature;BME280_humidity;BME280_pressure;Samples;Min_cycle;Max_cycle;Signal;HPM_P1;HPM_P2
2021/07/27 00:00:07;;;;;;;7.53;6.28;;;24.30;72.60;;;;;;1872467;76;21096;-48
2021/07/27 00:02:38;;;;;;;7.90;6.37;;;24.30;72.60;;;;;;1872538;76;21117;-49
2021/07/27 00:05:08;;;;;;;8.20;6.60;;;24.40;72.60;;;;;;1872547;76;21067;-48
2021/07/27 00:07:38;;;;;;;7.00;6.37;;;24.30;72.60;;;;;;1872477;75;21086;-48
2021/07/27 00:10:11;;;;;;;7.83;6.62;;;24.40;72.40;;;;;;1872612;77;21105;-46
2021/07/27 00:12:41;;;;;;;8.23;6.47;;;24.40;72.20;;;;;;1872424;77;21106;-49
2021/07/27 00:15:11;;;;;;;7.95;6.35;;;24.30;72.40;;;;;;1872652;76;20991;-48
2021/07/27 00:17:41;;;;;;;10.08;6.70;;;24.30;72.30;;;;;;1872488;76;21031;-47
2021/07/27 00:20:11;;;;;;;7.25;6.55;;;24.30;72.30;;;;;;1837299;78;21103;-45
2021/07/27 00:22:43;;;;;;;12.10;6.53;;;24.20;72.30;;;;;;1837277;76;21030;-47
2021/07/27 00:25:16;;;;;;;9.20;6.22;;;24.20;72.60;;;;;;1837290;76;21155;-48
2021/07/27 00:27:46;;;;;;;13.28;7.67;;;24.20;72.80;;;;;;1837384;76;21042;-47
2021/07/27 00:30:15;;;;;;;7.30;6.60;;;24.20;73.00;;;;;;1837296;77;21167;-48
2021/07/27 00:32:45;;;;;;;10.60;7.40;;;24.20;72.80;;;;;;1837288;78;21096;-48
2021/07/27 00:35:15;;;;;;;10.05;6.83;;;24.30;72.80;;;;;;1837419;78;21092;-48
2021/07/27 00:37:47;;;;;;;9.98;6.95;;;24.20;72.90;;;;;;1837350;77;21491;-47
2021/07/27 00:40:16;;;;;;;17.42;7.62;;;24.20;72.90;;;;;;1837393;78;21054;-47
2021/07/27 00:42:46;;;;;;;10.30;6.30;;;24.20;73.00;;;;;;1838898;76;21195;-50
2021/07/27 00:45:17;;;;;;;12.90;6.50;;;24.20;73.20;;;;;;1884695;76;21019;-48
2021/07/27 00:47:46;;;;;;;10.65;6.65;;;24.30;73.50;;;;;;1884841;76;21026;-48
2021/07/27 00:50:16;;;;;;;10.60;6.15;;;24.30;73.50;;;;;;1884786;76;21021;-49
2021/07/27 00:52:45;;;;;;;10.40;7.00;;;24.30;73.40;;;;;;1884702;75;21088;-49
2021/07/27 00:55:15;;;;;;;12.35;6.97;;;24.30;73.40;;;;;;1884706;76;21022;-48
2021/07/27 00:57:45;;;;;;;9.90;6.78;;;24.30;73.30;;;;;;1884730;76;21140;-47
2021/07/27 01:00:15;;;;;;;13.10;7.10;;;24.30;73.30;;;;;;1884728;76;21073;-49
2021/07/27 01:02:44;;;;;;;8.60;6.80;;;24.20;73.10;;;;;;1884802;76;21007;-47
2021/07/27 01:05:14;;;;;;;7.85;6.58;;;24.20;73.10;;;;;;1884701;76;21002;-48
2021/07/27 01:07:44;;;;;;;8.45;6.80;;;24.10;73.10;;;;;;1884715;76;21108;-46
2021/07/27 01:10:20;;;;;;;7.47;6.42;;;24.10;73.30;;;;;;1884715;75;21034;-48
2021/07/27 01:12:48;;;;;;;8.95;6.60;;;24.10;73.60;;;;;;1883203;76;21106;-47
2021/07/27 01:15:17;;;;;;;11.03;6.45;;;24.00;73.60;;;;;;1884745;75;21038;-45
2021/07/27 01:17:47;;;;;;;8.63;6.92;;;24.00;73.70;;;;;;1884690;75;21022;-48
2021/07/27 01:39:34;;;;;;;12.23;7.92;;;23.80;72.80;;;;;;1884826;76;21010;-47
2021/07/27 01:42:13;;;;;;;9.10;7.30;;;23.70;72.80;;;;;;1884856;75;21090;-48
2021/07/27 01:44:44;;;;;;;8.05;6.40;;;23.60;73.40;;;;;;1891447;75;21116;-44
2021/07/27 01:47:15;;;;;;;11.28;7.80;;;23.50;74.00;;;;;;1894067;76;21042;-48
2021/07/27 01:49:46;;;;;;;13.93;9.75;;;23.60;74.10;;;;;;1894036;76;20998;-48
2021/07/27 01:52:16;;;;;;;17.12;9.88;;;23.60;73.90;;;;;;1893929;76;21010;-46
2021/07/27 01:54:52;;;;;;;12.75;8.75;;;23.60;73.80;;;;;;1893968;76;20990;-47
2021/07/27 01:57:19;;;;;;;13.35;8.53;;;23.50;73.60;;;;;;1893817;75;21107;-48
2021/07/27 02:00:08;;;;;;;13.13;9.93;;;23.50;73.80;;;;;;1893983;75;21088;-44
2021/07/27 02:02:37;;;;;;;12.07;7.78;;;23.50;74.00;;;;;;1894090;76;21085;-48
2021/07/27 02:05:08;;;;;;;9.15;7.20;;;23.40;74.30;;;;;;1893985;76;21030;-47
2021/07/27 02:07:38;;;;;;;14.23;8.28;;;23.50;74.60;;;;;;1893945;76;21018;-45
2021/07/27 02:10:11;;;;;;;11.78;7.50;;;23.50;74.60;;;;;;1894096;75;21022;-47
2021/07/27 02:12:40;;;;;;;7.75;6.95;;;23.60;74.50;;;;;;1893895;75;21038;-48
2021/07/27 02:15:12;;;;;;;11.38;7.90;;;23.70;74.40;;;;;;1894012;76;21554;-48
2021/07/27 02:17:42;;;;;;;12.30;7.72;;;23.70;74.30;;;;;;1894030;76;21112;-46
2021/07/27 02:20:12;;;;;;;12.93;7.78;;;23.80;74.20;;;;;;1894026;76;21088;-46
2021/07/27 02:22:41;;;;;;;11.22;7.62;;;23.90;74.00;;;;;;1893948;76;21002;-47
2021/07/27 02:25:11;;;;;;;10.95;7.87;;;23.90;73.90;;;;;;1894013;76;21034;-47
2021/07/27 02:27:40;;;;;;;10.80;7.12;;;23.90;74.10;;;;;;1894006;75;21092;-45
2021/07/27 02:30:10;;;;;;;15.23;7.22;;;23.90;74.20;;;;;;1893908;75;21002;-46
2021/07/27 02:32:39;;;;;;;11.22;7.42;;;23.90;74.40;;;;;;1894012;76;21006;-47
2021/07/27 02:35:09;;;;;;;13.35;7.12;;;23.90;74.30;;;;;;1894025;76;20999;-45
2021/07/27 02:37:39;;;;;;;12.18;7.60;;;23.90;74.10;;;;;;1893962;76;21026;-48
2021/07/27 02:40:10;;;;;;;11.65;7.50;;;23.90;74.00;;;;;;1893898;76;21018;-45
2021/07/27 02:42:40;;;;;;;9.73;7.15;;;23.80;73.80;;;;;;1893927;75;21096;-47
2021/07/27 02:45:11;;;;;;;12.80;7.35;;;23.70;73.80;;;;;;1893850;76;21124;-46
2021/07/27 02:47:42;;;;;;;8.78;6.80;;;23.70;73.90;;;;;;1894071;76;21028;-44
2021/07/27 02:50:11;;;;;;;13.90;7.28;;;23.70;74.20;;;;;;1893855;76;21006;-49
2021/07/27 02:52:41;;;;;;;14.83;7.53;;;23.70;74.30;;;;;;1894000;76;21096;-46
2021/07/27 02:55:12;;;;;;;14.40;7.60;;;23.70;74.10;;;;;;1893916;76;21034;-48
2021/07/27 02:57:41;;;;;;;11.48;7.08;;;23.70;73.90;;;;;;1893916;74;21096;-45
2021/07/27 03:00:11;;;;;;;11.70;7.55;;;23.60;73.90;;;;;;1893935;76;21096;-46
2021/07/27 03:02:44;;;;;;;11.65;7.30;;;23.60;73.70;;;;;;1893951;76;21088;-48
2021/07/27 03:05:17;;;;;;;16.93;8.35;;;23.50;73.70;;;;;;1893833;75;21484;-45
2021/07/27 03:10:18;;;;;;;13.38;7.30;;;23.40;73.80;;;;;;1894026;76;21041;-47
2021/07/27 03:12:49;;;;;;;13.05;8.43;;;23.40;74.00;;;;;;1894031;76;21086;-46
2021/07/27 03:15:20;;;;;;;20.95;8.23;;;23.40;74.00;;;;;;1894041;74;21026;-47
2021/07/27 03:17:50;;;;;;;18.20;8.03;;;23.30;73.80;;;;;;1857142;76;21049;-47
2021/07/27 03:20:21;;;;;;;15.58;7.90;;;23.30;73.50;;;;;;1900217;75;21194;-46
2021/07/27 03:22:52;;;;;;;17.07;8.05;;;23.30;73.40;;;;;;1858015;77;21025;-48
2021/07/27 03:25:21;;;;;;;19.85;8.13;;;23.30;73.30;;;;;;1857799;77;21118;-49
2021/07/27 03:27:52;;;;;;;18.98;8.58;;;23.30;73.20;;;;;;1900351;75;21002;-47
2021/07/27 03:30:22;;;;;;;18.07;8.73;;;23.30;73.30;;;;;;1858190;77;21171;-48
2021/07/27 03:32:51;;;;;;;19.90;10.25;;;23.30;73.30;;;;;;1858164;76;21021;-44
2021/07/27 03:35:21;;;;;;;22.52;9.18;;;23.30;73.30;;;;;;1858157;76;21029;-44
2021/07/27 03:37:51;;;;;;;23.70;8.50;;;23.40;73.30;;;;;;1858129;77;21033;-46
2021/07/27 03:40:20;;;;;;;12.13;7.20;;;23.30;72.90;;;;;;1900269;75;21085;-47
2021/07/27 03:42:50;;;;;;;31.93;9.70;;;23.30;72.80;;;;;;1858183;77;21041;-47
2021/07/27 03:45:19;;;;;;;23.95;8.83;;;23.30;72.80;;;;;;1900207;75;21022;-46
2021/07/27 03:47:48;;;;;;;14.65;8.23;;;23.30;72.90;;;;;;1900387;75;20994;-45
2021/07/27 03:50:18;;;;;;;21.65;9.80;;;23.30;73.10;;;;;;1900250;75;21112;-48
2021/07/27 03:52:47;;;;;;;20.88;8.78;;;23.30;73.10;;;;;;1900243;75;21022;-49
2021/07/27 03:55:17;;;;;;;26.10;10.13;;;23.30;72.80;;;;;;1900196;75;21092;-46
2021/07/27 03:57:46;;;;;;;18.32;7.50;;;23.30;72.70;;;;;;1900491;74;21010;-49
2021/07/27 04:00:16;;;;;;;16.95;7.75;;;23.30;72.70;;;;;;1900243;75;21100;-49
2021/07/27 04:02:45;;;;;;;16.60;8.08;;;23.30;72.60;;;;;;1900188;75;21096;-46
2021/07/27 04:05:15;;;;;;;19.92;8.15;;;23.30;72.80;;;;;;1900283;74;21009;-45
2021/07/27 04:07:44;;;;;;;24.87;8.65;;;23.40;72.90;;;;;;1858071;77;21087;-45
2021/07/27 04:10:14;;;;;;;26.12;7.97;;;23.40;72.90;;;;;;1858057;76;21076;-46
2021/07/27 04:12:43;;;;;;;17.27;7.85;;;23.50;72.90;;;;;;1900321;75;21065;-48
2021/07/27 04:15:13;;;;;;;20.17;7.70;;;23.50;73.00;;;;;;1858122;76;21037;-47
2021/07/27 04:17:42;;;;;;;17.82;7.25;;;23.50;73.10;;;;;;1858089;76;21021;-47
2021/07/27 04:20:13;;;;;;;28.10;8.00;;;23.70;73.20;;;;;;1858193;77;21009;-47
2021/07/27 04:22:42;;;;;;;23.57;7.70;;;23.70;72.80;;;;;;1857970;76;21130;-47
2021/07/27 04:25:12;;;;;;;30.45;8.45;;;23.80;72.70;;;;;;1857935;77;21005;-45
2021/07/27 04:27:41;;;;;;;24.95;7.92;;;23.80;72.50;;;;;;1900205;75;21025;-47
2021/07/27 04:30:10;;;;;;;21.85;8.35;;;23.80;72.60;;;;;;1857960;76;21060;-48
2021/07/27 04:32:40;;;;;;;24.80;8.83;;;23.90;72.50;;;;;;1900294;75;21026;-48
2021/07/27 04:35:10;;;;;;;20.65;8.93;;;23.90;72.40;;;;;;1857874;76;21025;-46
2021/07/27 04:37:39;;;;;;;29.52;8.85;;;24.00;72.20;;;;;;1858056;77;21029;-46
2021/07/27 04:40:09;;;;;;;24.80;7.45;;;24.00;72.10;;;;;;1900157;75;21095;-48
2021/07/27 04:42:39;;;;;;;17.00;7.55;;;24.00;72.00;;;;;;1858010;76;21021;-45
2021/07/27 04:45:09;;;;;;;28.85;8.68;;;24.00;72.10;;;;;;1856250;77;21178;-50
2021/07/27 04:47:38;;;;;;;21.55;6.78;;;24.10;72.20;;;;;;1848923;76;21025;-45
2021/07/27 04:50:09;;;;;;;20.45;6.50;;;24.10;72.10;;;;;;1884676;76;21100;-45
2021/07/27 04:52:41;;;;;;;32.08;7.45;;;24.10;71.70;;;;;;1884869;75;21046;-47
2021/07/27 04:55:10;;;;;;;24.18;9.25;;;24.20;71.30;;;;;;1884701;76;21105;-47
2021/07/27 04:57:40;;;;;;;33.67;7.33;;;24.20;70.90;;;;;;1884641;76;21015;-47
2021/07/27 05:00:18;;;;;;;25.75;7.03;;;24.20;70.60;;;;;;1884652;75;21030;-46
2021/07/27 05:02:47;;;;;;;21.90;6.75;;;24.20;70.80;;;;;;1848964;77;21099;-48
2021/07/27 05:05:17;;;;;;;29.70;7.17;;;24.30;71.00;;;;;;1884589;76;21081;-47
2021/07/27 05:07:46;;;;;;;18.42;6.28;;;24.30;71.00;;;;;;1884696;75;21094;-46
2021/07/27 05:10:17;;;;;;;36.63;9.90;;;24.50;71.00;;;;;;1884616;76;21018;-47
2021/07/27 05:12:46;;;;;;;24.98;6.58;;;24.50;70.70;;;;;;1848303;76;21483;-46
2021/07/27 05:15:16;;;;;;;32.30;7.92;;;24.60;70.60;;;;;;1884559;76;21055;-46
2021/07/27 05:17:46;;;;;;;27.90;7.22;;;24.80;70.30;;;;;;1884688;75;21084;-46
2021/07/27 05:20:16;;;;;;;36.25;11.33;;;24.80;70.00;;;;;;1884624;76;21086;-47
2021/07/27 05:22:45;;;;;;;32.33;7.33;;;24.90;70.00;;;;;;1884503;75;21096;-48
2021/07/27 05:25:18;;;;;;;30.43;8.50;;;25.00;69.40;;;;;;1884419;75;21069;-47
2021/07/27 05:27:47;;;;;;;33.40;7.55;;;25.10;69.20;;;;;;1884548;76;21055;-47
2021/07/27 05:30:17;;;;;;;27.58;7.33;;;25.20;68.80;;;;;;1884594;75;21026;-45
2021/07/27 05:32:47;;;;;;;30.48;7.40;;;25.20;68.80;;;;;;1884670;75;21027;-47
2021/07/27 05:35:16;;;;;;;24.25;7.37;;;25.30;69.00;;;;;;1884614;75;21014;-46
2021/07/27 05:37:46;;;;;;;61.15;28.42;;;25.30;68.20;;;;;;1884604;76;21019;-48
2021/07/27 05:40:15;;;;;;;34.60;7.85;;;25.40;68.00;;;;;;1884599;76;21030;-49
2021/07/27 05:42:45;;;;;;;21.65;7.33;;;25.40;68.30;;;;;;1884690;76;21025;-48
2021/07/27 05:45:15;;;;;;;149.32;85.03;;;25.40;68.80;;;;;;1884897;75;21139;-47
2021/07/27 05:47:44;;;;;;;52.75;18.48;;;25.50;68.70;;;;;;1884715;76;21094;-46
2021/07/27 05:50:13;;;;;;;266.98;210.80;;;25.60;68.90;;;;;;1884679;75;21100;-46
2021/07/27 05:52:43;;;;;;;37.48;9.60;;;25.60;68.80;;;;;;1884703;76;21105;-45
2021/07/27 05:55:13;;;;;;;35.35;6.90;;;25.60;68.30;;;;;;1884730;76;21030;-45
2021/07/27 05:57:42;;;;;;;35.68;7.47;;;25.70;68.20;;;;;;1884853;76;21062;-45
2021/07/27 06:00:12;;;;;;;28.00;7.37;;;25.70;68.20;;;;;;1884687;75;21539;-46
2021/07/27 06:02:41;;;;;;;38.65;7.35;;;25.70;68.00;;;;;;1884723;75;21030;-49
2021/07/27 06:05:11;;;;;;;32.33;8.45;;;25.80;67.80;;;;;;1884810;75;21556;-44
2021/07/27 06:07:40;;;;;;;40.70;9.48;;;25.80;67.70;;;;;;1884777;76;21031;-47
2021/07/27 06:10:10;;;;;;;36.93;8.20;;;25.80;67.60;;;;;;1884700;76;21026;-46
2021/07/27 06:12:40;;;;;;;56.60;16.82;;;25.80;67.80;;;;;;1884728;76;21030;-44
2021/07/27 06:15:10;;;;;;;31.48;9.60;;;25.90;68.20;;;;;;1884809;75;21027;-48
2021/07/27 06:17:39;;;;;;;32.75;7.05;;;25.80;67.20;;;;;;1884740;76;21026;-47
2021/07/27 06:20:09;;;;;;;38.70;6.97;;;25.90;67.10;;;;;;1884831;76;21551;-47
2021/07/27 06:22:38;;;;;;;34.98;7.03;;;25.90;67.10;;;;;;1884706;75;20999;-44
2021/07/27 06:25:12;;;;;;;38.33;9.58;;;26.00;66.80;;;;;;1884629;76;21088;-47
2021/07/27 06:27:39;;;;;;;36.83;7.97;;;26.00;66.40;;;;;;1884679;76;21112;-48
2021/07/27 06:30:10;;;;;;;34.45;14.15;;;26.00;66.10;;;;;;1884773;76;21023;-46
2021/07/27 06:32:40;;;;;;;39.65;12.07;;;26.10;66.50;;;;;;1884879;76;21116;-45
2021/07/27 06:35:11;;;;;;;42.35;6.97;;;26.10;66.60;;;;;;1884680;76;20998;-50
2021/07/27 06:37:40;;;;;;;21.97;5.72;;;26.20;66.30;;;;;;1884561;76;21022;-47
2021/07/27 06:40:11;;;;;;;17.62;5.05;;;26.30;66.10;;;;;;1884250;76;21094;-46
2021/07/27 06:42:41;;;;;;;27.60;7.35;;;26.30;66.60;;;;;;1881986;75;21054;-46
2021/07/27 06:45:11;;;;;;;26.82;6.12;;;26.40;66.20;;;;;;1862089;76;21092;-49
2021/07/27 06:47:41;;;;;;;24.43;5.90;;;26.50;66.40;;;;;;1862311;76;21096;-47
2021/07/27 06:50:11;;;;;;;23.05;6.50;;;26.60;65.60;;;;;;1884540;76;21010;-50
2021/07/27 06:52:39;;;;;;;21.12;5.90;;;26.70;65.50;;;;;;1883410;76;21120;-51
2021/07/27 06:55:09;;;;;;;28.27;6.20;;;26.70;65.50;;;;;;1884455;76;21019;-49
2021/07/27 06:57:39;;;;;;;15.25;5.20;;;26.90;65.80;;;;;;1884224;76;21105;-48
2021/07/27 07:00:09;;;;;;;5.45;3.05;;;27.00;65.30;;;;;;1883481;76;21155;-50
2021/07/27 07:02:39;;;;;;;15.03;5.22;;;27.00;64.80;;;;;;1862608;76;21042;-49
2021/07/27 07:05:09;;;;;;;7.60;4.50;;;27.00;65.40;;;;;;1883684;76;21170;-51
2021/07/27 07:07:39;;;;;;;11.97;4.87;;;27.00;65.20;;;;;;1876023;76;21186;-49
2021/07/27 07:10:09;;;;;;;7.55;4.53;;;27.00;65.40;;;;;;1879115;76;21140;-50
2021/07/27 07:12:38;;;;;;;11.97;5.50;;;27.00;65.70;;;;;;1880592;76;21018;-50
2021/07/27 07:15:08;;;;;;;12.65;5.37;;;27.00;66.20;;;;;;1881117;76;21155;-54
2021/07/27 07:17:38;;;;;;;8.35;4.85;;;26.90;66.20;;;;;;1881401;76;21042;-55
2021/07/27 07:20:08;;;;;;;9.13;5.45;;;26.90;66.60;;;;;;1864839;76;21098;-53
2021/07/27 07:22:38;;;;;;;10.48;5.35;;;26.80;66.90;;;;;;1873823;76;21042;-48
2021/07/27 07:25:08;;;;;;;6.42;5.03;;;26.90;67.20;;;;;;1874235;76;21089;-47
2021/07/27 07:27:38;;;;;;;13.32;6.05;;;26.90;67.40;;;;;;1874371;75;21093;-46
2021/07/27 07:30:08;;;;;;;8.90;5.25;;;26.90;67.50;;;;;;1874125;75;21100;-46
2021/07/27 07:32:37;;;;;;;7.65;4.70;;;26.90;67.80;;;;;;1874141;76;21025;-48
2021/07/27 07:35:07;;;;;;;6.10;4.72;;;26.90;68.00;;;;;;1874205;76;21086;-51
2021/07/27 07:37:36;;;;;;;9.50;4.58;;;26.80;67.70;;;;;;1874490;76;21043;-49
2021/07/27 07:40:07;;;;;;;13.55;9.35;;;26.80;68.00;;;;;;1874228;76;21011;-50
2021/07/27 07:42:36;;;;;;;11.43;6.30;;;26.90;68.20;;;;;;1881679;76;21108;-51
2021/07/27 07:45:06;;;;;;;6.10;4.87;;;26.80;68.20;;;;;;1883417;76;21139;-51
2021/07/27 07:47:36;;;;;;;5.85;3.85;;;26.90;66.80;;;;;;1887836;76;21105;-47
2021/07/27 07:50:06;;;;;;;8.18;4.62;;;26.80;66.60;;;;;;1893049;76;21069;-50
2021/07/27 07:52:35;;;;;;;5.40;4.17;;;26.70;66.80;;;;;;1891908;75;21057;-51
2021/07/27 07:55:08;;;;;;;10.82;4.08;;;26.60;67.10;;;;;;1892913;76;21131;-51
2021/07/27 07:57:38;;;;;;;7.40;3.83;;;26.60;66.60;;;;;;1892733;76;21097;-48
2021/07/27 08:00:08;;;;;;;4.25;3.17;;;26.60;66.90;;;;;;1892917;76;21026;-47
2021/07/27 08:02:44;;;;;;;9.75;4.30;;;26.70;66.70;;;;;;1893166;75;21125;-47
2021/07/27 08:05:13;;;;;;;5.33;4.28;;;26.70;66.90;;;;;;1893055;76;21022;-50
2021/07/27 08:07:43;;;;;;;11.28;4.78;;;26.70;66.60;;;;;;1892430;74;21065;-48
2021/07/27 08:10:13;;;;;;;9.50;4.50;;;26.70;66.90;;;;;;1892478;76;21555;-49
2021/07/27 08:12:44;;;;;;;5.35;3.92;;;26.60;67.10;;;;;;1892791;76;21106;-48
2021/07/27 08:15:13;;;;;;;5.47;3.77;;;26.70;66.90;;;;;;1892572;76;21109;-48
2021/07/27 08:17:42;;;;;;;7.83;4.67;;;26.70;67.00;;;;;;1892906;76;21006;-47
2021/07/27 08:20:14;;;;;;;5.33;2.98;;;26.70;67.20;;;;;;1892413;75;21076;-49
2021/07/27 08:22:44;;;;;;;9.20;3.60;;;26.70;67.00;;;;;;1893069;76;21093;-49
2021/07/27 08:25:18;;;;;;;6.12;4.45;;;26.70;66.60;;;;;;1893011;76;21045;-50
2021/07/27 08:27:48;;;;;;;6.37;4.25;;;26.60;66.90;;;;;;1892999;76;21492;-49
2021/07/27 08:30:18;;;;;;;8.38;4.70;;;26.60;66.90;;;;;;1892918;76;21088;-47
2021/07/27 08:32:52;;;;;;;9.93;4.75;;;26.70;67.10;;;;;;1892902;76;21100;-46
2021/07/27 08:35:23;;;;;;;6.58;3.58;;;26.70;67.10;;;;;;1893217;76;21030;-47
2021/07/27 08:37:53;;;;;;;5.58;3.65;;;26.70;67.00;;;;;;1893002;74;21480;-45
2021/07/27 08:40:22;;;;;;;9.03;4.20;;;26.70;66.40;;;;;;1892967;74;21002;-49
2021/07/27 08:42:52;;;;;;;6.28;3.90;;;26.70;65.40;;;;;;1893040;74;21495;-49
2021/07/27 08:45:21;;;;;;;9.88;4.22;;;26.70;64.90;;;;;;1892839;76;21034;-47
2021/07/27 08:47:51;;;;;;;4.85;3.02;;;26.80;64.60;;;;;;1894202;75;21018;-48
2021/07/27 08:50:20;;;;;;;4.28;3.45;;;27.00;63.50;;;;;;1896410;76;21022;-50
2021/07/27 08:52:50;;;;;;;9.08;3.67;;;27.00;62.80;;;;;;1896381;76;21101;-49
2021/07/27 08:55:20;;;;;;;5.75;2.90;;;27.10;62.80;;;;;;1896421;76;21034;-48
2021/07/27 08:57:57;;;;;;;5.22;2.75;;;27.20;61.70;;;;;;1896372;75;21115;-49
2021/07/27 09:00:27;;;;;;;5.87;3.62;;;27.30;60.30;;;;;;1896286;76;21099;-48
2021/07/27 09:03:08;;;;;;;11.28;3.65;;;27.20;60.20;;;;;;1896339;76;21087;-49
2021/07/27 09:05:38;;;;;;;9.08;3.37;;;27.30;60.20;;;;;;1896345;76;21010;-49
2021/07/27 09:08:08;;;;;;;4.80;2.77;;;27.30;58.30;;;;;;1896283;75;21049;-49
2021/07/27 09:10:40;;;;;;;5.37;2.40;;;27.30;58.10;;;;;;1896508;74;21119;-47
2021/07/27 09:13:11;;;;;;;3.27;2.50;;;27.40;56.10;;;;;;1896507;76;21135;-49
2021/07/27 09:15:43;;;;;;;4.33;2.52;;;27.40;55.80;;;;;;1896442;76;21044;-49
2021/07/27 09:18:19;;;;;;;7.62;2.87;;;27.30;55.70;;;;;;1896243;75;21084;-49
2021/07/27 09:20:53;;;;;;;4.62;2.58;;;27.40;55.30;;;;;;1895428;76;21582;-46
2021/07/27 09:23:27;;;;;;;5.33;2.58;;;27.30;54.50;;;;;;1896378;75;21093;-45
2021/07/27 09:25:59;;;;;;;6.12;2.85;;;27.30;54.20;;;;;;1896417;76;20997;-50
2021/07/27 09:28:29;;;;;;;12.50;3.92;;;27.20;54.60;;;;;;1896423;75;21017;-49
2021/07/27 09:31:00;;;;;;;8.28;2.55;;;27.20;54.60;;;;;;1896208;76;21060;-51
2021/07/27 09:33:33;;;;;;;7.72;2.47;;;27.20;54.70;;;;;;1896542;76;21018;-50
2021/07/27 09:36:04;;;;;;;7.22;2.30;;;27.20;53.50;;;;;;1896257;76;21083;-51
2021/07/27 09:38:33;;;;;;;12.82;4.87;;;27.10;53.70;;;;;;1896366;76;21018;-50
2021/07/27 09:41:07;;;;;;;2.67;2.12;;;27.10;54.20;;;;;;1896512;76;21029;-48
2021/07/27 09:43:37;;;;;;;6.17;3.20;;;27.10;53.10;;;;;;1896461;75;21065;-49
2021/07/27 09:46:06;;;;;;;3.05;2.02;;;27.10;53.40;;;;;;1896156;76;21548;-48
2021/07/27 09:48:40;;;;;;;4.78;2.77;;;27.10;53.40;;;;;;1882992;76;21098;-48
2021/07/27 09:51:09;;;;;;;6.40;3.22;;;27.10;53.50;;;;;;1862260;76;21078;-50
2021/07/27 09:53:39;;;;;;;7.22;2.00;;;27.00;53.50;;;;;;1862347;77;21105;-47
2021/07/27 09:56:08;;;;;;;5.10;2.35;;;27.00;53.20;;;;;;1862312;77;21023;-49
2021/07/27 09:58:38;;;;;;;7.30;3.15;;;26.90;53.60;;;;;;1862404;76;21055;-48
2021/07/27 10:01:19;;;;;;;7.80;2.70;;;27.00;54.10;;;;;;1862505;76;21031;-49
2021/07/27 10:03:51;;;;;;;4.10;2.58;;;27.00;54.50;;;;;;1862415;77;21039;-49
2021/07/27 10:06:26;;;;;;;4.17;3.10;;;27.10;54.30;;;;;;1862464;77;21449;-50
2021/07/27 10:08:55;;;;;;;;;;;27.10;54.90;;;;;;1865385;76;21481;-49
2021/07/27 10:11:35;;;;;;;5.10;2.62;;;27.20;55.00;;;;;;1862556;77;20143;-46
2021/07/27 10:14:16;;;;;;;6.90;3.08;;;27.20;54.10;;;;;;1862350;76;21078;-46
2021/07/27 10:16:46;;;;;;;5.80;2.87;;;27.20;53.60;;;;;;1863136;76;21059;-51
2021/07/27 10:19:20;;;;;;;4.42;2.95;;;27.20;54.30;;;;;;1863137;76;21003;-50
2021/07/27 10:22:07;;;;;;;8.93;2.77;;;27.10;53.90;;;;;;1863312;77;20999;-51
2021/07/27 10:24:42;;;;;;;4.62;3.40;;;27.10;54.20;;;;;;1862961;77;21035;-50
2021/07/27 10:27:19;;;;;;;4.55;2.42;;;27.10;53.70;;;;;;1863009;77;21512;-51
2021/07/27 10:29:48;;;;;;;3.90;2.15;;;27.10;53.30;;;;;;1863032;76;21118;-51
2021/07/27 10:32:19;;;;;;;2.55;2.00;;;27.30;54.00;;;;;;1863015;76;21089;-52
2021/07/27 10:34:49;;;;;;;5.50;3.00;;;27.30;54.00;;;;;;1863059;76;21476;-51
2021/07/27 10:37:18;;;;;;;6.28;3.10;;;27.40;54.50;;;;;;1863015;77;21015;-53
2021/07/27 10:39:53;;;;;;;4.70;3.17;;;27.50;54.70;;;;;;1863111;77;21140;-54
2021/07/27 10:42:23;;;;;;;6.62;3.17;;;27.50;54.10;;;;;;1863286;76;21073;-54
2021/07/27 10:44:53;;;;;;;8.58;2.92;;;27.50;53.80;;;;;;1862968;77;21019;-52
2021/07/27 10:47:24;;;;;;;2.80;2.20;;;27.50;54.00;;;;;;1863095;77;21058;-52
2021/07/27 10:50:04;;;;;;;3.12;2.70;;;27.60;53.60;;;;;;1886070;75;21136;-53
2021/07/27 10:52:34;;;;;;;2.33;1.95;;;27.50;53.70;;;;;;1897099;76;21268;-53
2021/07/27 10:55:06;;;;;;;4.95;2.55;;;27.30;53.50;;;;;;1897144;75;21005;-52
2021/07/27 10:57:37;;;;;;;3.75;2.45;;;27.20;54.00;;;;;;1897135;75;21483;-52
2021/07/27 11:00:08;;;;;;;6.30;3.08;;;27.10;54.60;;;;;;1897137;76;21454;-51
2021/07/27 11:02:38;;;;;;;2.77;2.50;;;27.00;54.70;;;;;;1896957;76;21139;-53
2021/07/27 11:05:08;;;;;;;4.10;2.02;;;26.90;55.00;;;;;;1896967;76;21045;-52
2021/07/27 11:07:38;;;;;;;4.70;2.17;;;26.80;55.30;;;;;;1897063;76;21147;-53
2021/07/27 11:10:08;;;;;;;5.28;2.40;;;26.80;55.30;;;;;;1897096;74;21065;-52
2021/07/27 11:12:42;;;;;;;3.70;2.30;;;26.70;55.40;;;;;;1897160;74;21127;-52
2021/07/27 11:15:20;;;;;;;3.45;2.92;;;26.70;55.90;;;;;;1897195;74;21049;-52
2021/07/27 11:18:04;;;;;;;4.12;2.40;;;26.70;56.50;;;;;;1897169;76;21103;-52
2021/07/27 11:20:37;;;;;;;2.65;2.05;;;26.70;56.70;;;;;;1897113;74;21026;-52
2021/07/27 11:23:12;;;;;;;11.23;3.23;;;26.70;57.00;;;;;;1897347;76;21306;-52
2021/07/27 11:25:42;;;;;;;5.35;2.45;;;26.80;57.40;;;;;;1897016;74;21030;-53
2021/07/27 11:28:14;;;;;;;3.05;2.40;;;26.80;57.70;;;;;;1897213;76;21085;-52
2021/07/27 11:30:44;;;;;;;4.92;2.60;;;26.80;57.60;;;;;;1897181;75;21018;-51
2021/07/27 11:33:20;;;;;;;3.10;2.50;;;26.70;57.70;;;;;;1897287;76;21018;-51
2021/07/27 11:35:54;;;;;;;3.95;2.30;;;26.70;58.00;;;;;;1897201;74;21107;-53
2021/07/27 11:38:34;;;;;;;5.03;2.57;;;26.70;57.80;;;;;;1897454;76;21107;-53
2021/07/27 11:41:08;;;;;;;5.90;2.45;;;26.70;58.20;;;;;;1897246;76;20998;-52
2021/07/27 11:43:42;;;;;;;7.83;2.40;;;26.70;58.70;;;;;;1897437;75;21072;-53
2021/07/27 11:46:16;;;;;;;3.93;2.50;;;26.70;58.30;;;;;;1897378;76;21026;-53
2021/07/27 11:48:47;;;;;;;6.90;2.72;;;26.80;58.30;;;;;;1897323;74;21791;-53
2021/07/27 11:51:16;;;;;;;4.28;2.55;;;26.80;58.50;;;;;;1896534;75;21072;-53
2021/07/27 11:53:48;;;;;;;4.15;2.15;;;26.80;58.20;;;;;;1897192;76;20994;-52
2021/07/27 11:56:19;;;;;;;5.05;2.00;;;26.70;58.50;;;;;;1895263;76;21097;-52
2021/07/27 11:59:04;;;;;;;4.75;2.60;;;26.70;58.00;;;;;;1897300;76;21073;-53
2021/07/27 12:01:41;;;;;;;6.37;2.65;;;26.70;58.10;;;;;;1897332;76;20998;-52
2021/07/27 12:04:11;;;;;;;9.80;2.65;;;26.70;58.00;;;;;;1897132;76;21026;-52
2021/07/27 12:06:48;;;;;;;4.17;2.62;;;26.70;58.00;;;;;;1897045;75;21100;-50
2021/07/27 12:09:19;;;;;;;4.15;3.05;;;26.70;57.90;;;;;;1897113;76;21095;-52
2021/07/27 12:11:49;;;;;;;5.47;3.17;;;26.80;58.10;;;;;;1897132;76;21021;-52
2021/07/27 12:14:19;;;;;;;4.47;2.60;;;26.80;58.30;;;;;;1897196;76;21085;-53
2021/07/27 12:16:49;;;;;;;7.22;3.37;;;26.80;57.70;;;;;;1897109;76;21083;-52
2021/07/27 12:19:19;;;;;;;10.13;2.60;;;26.80;58.00;;;;;;1897076;76;21034;-52
2021/07/27 12:21:48;;;;;;;5.37;2.35;;;26.70;57.80;;;;;;1897125;74;21077;-52
2021/07/27 12:24:17;;;;;;;4.80;2.55;;;26.70;57.90;;;;;;1897011;76;21006;-51
2021/07/27 12:26:47;;;;;;;4.15;2.70;;;26.60;57.60;;;;;;1897123;74;21099;-53
2021/07/27 12:29:16;;;;;;;4.62;3.35;;;26.50;58.00;;;;;;1897066;76;21034;-52
2021/07/27 12:31:46;;;;;;;4.03;2.77;;;26.50;58.20;;;;;;1897113;76;21084;-51
2021/07/27 12:34:15;;;;;;;6.15;3.02;;;26.40;58.30;;;;;;1896996;76;21025;-52
2021/07/27 12:36:45;;;;;;;5.45;2.80;;;26.40;58.50;;;;;;1897184;76;21206;-51
2021/07/27 12:39:14;;;;;;;11.68;3.90;;;26.30;58.50;;;;;;1897047;76;21083;-52
2021/07/27 12:41:44;;;;;;;4.50;3.33;;;26.30;58.90;;;;;;1897083;76;21026;-52
2021/07/27 12:44:15;;;;;;;4.70;2.45;;;26.20;59.00;;;;;;1897040;76;21025;-51
2021/07/27 12:46:45;;;;;;;5.00;2.70;;;26.20;59.00;;;;;;1897118;75;21022;-53
2021/07/27 12:49:15;;;;;;;5.67;3.20;;;26.20;58.90;;;;;;1897123;76;21136;-52
2021/07/27 12:51:45;;;;;;;6.37;3.80;;;26.20;59.10;;;;;;1897272;75;21460;-53
2021/07/27 12:54:15;;;;;;;6.87;3.72;;;26.20;59.30;;;;;;1897199;76;21018;-50
2021/07/27 12:56:44;;;;;;;6.22;2.77;;;26.10;58.60;;;;;;1897083;75;21087;-51
2021/07/27 12:59:14;;;;;;;4.17;2.95;;;26.10;59.00;;;;;;1897098;76;21072;-52
2021/07/27 13:01:43;;;;;;;5.78;2.92;;;26.00;59.30;;;;;;1897293;76;21065;-51
2021/07/27 13:04:13;;;;;;;4.83;2.58;;;26.10;59.70;;;;;;1897047;76;21026;-52
2021/07/27 13:06:42;;;;;;;5.45;2.67;;;26.20;59.60;;;;;;1897186;76;21023;-52
2021/07/27 13:09:12;;;;;;;5.75;2.40;;;26.10;59.30;;;;;;1897073;74;21026;-53
2021/07/27 13:11:41;;;;;;;5.60;2.90;;;26.00;59.20;;;;;;1897025;76;21021;-51
2021/07/27 13:14:10;;;;;;;5.87;3.02;;;26.00;59.40;;;;;;1897180;76;21460;-52
2021/07/27 13:16:40;;;;;;;8.55;3.30;;;26.10;59.60;;;;;;1897121;75;21022;-53
2021/07/27 13:19:10;;;;;;;8.90;3.27;;;26.20;59.30;;;;;;1897002;75;21089;-53